Time;durP1;ratioP1;P1;durP2;ratioP2;P2;SDS_P1;SDS_P2;PMS_P1;PMS_P2;Temp;Humidity;BMP_temperature;BMP_pressure;BME280_temperature;BME280_humidity;BME280_pressure;Samples;Min_cycle;Max_cycle;Signal;HPM_P1;HPM_P2
2021/06/07 00:00:58;;;;;;;2.53;2.00;;;17.40;85.10;;;15.81;85.93;96317.22;5001665;28;20128;-63
2021/06/07 00:03:24;;;;;;;2.45;1.75;;;17.40;85.00;;;15.80;84.86;96320.91;5014515;28;20025;-64
2021/06/07 00:05:50;;;;;;;2.65;1.92;;;17.30;85.20;;;15.78;84.68;96313.16;5013573;28;20037;-63
2021/06/07 00:08:16;;;;;;;2.20;1.80;;;17.30;85.20;;;15.77;84.90;96316.84;5010795;28;20446;-63
2021/06/07 00:10:42;;;;;;;2.42;2.10;;;17.40;85.20;;;15.78;85.55;96317.66;5007700;28;20036;-62
2021/06/07 00:13:09;;;;;;;3.63;2.20;;;17.40;85.50;;;15.76;86.01;96309.91;5010970;28;20416;-63
2021/06/07 00:15:35;;;;;;;3.33;2.55;;;17.30;85.60;;;15.77;86.12;96311.53;4994148;28;20037;-62
2021/06/07 00:18:02;;;;;;;3.20;2.50;;;17.30;85.60;;;15.76;85.09;96315.22;5028159;28;20389;-63
2021/06/07 00:20:39;;;;;;;5.50;2.85;;;17.30;85.60;;;15.76;85.97;96304.63;5028929;28;20021;-62
2021/06/07 00:23:08;;;;;;;4.82;2.70;;;17.30;85.70;;;15.72;85.45;96308.72;4994967;28;20042;-61
2021/06/07 00:25:34;;;;;;;6.20;2.85;;;17.30;85.80;;;15.72;86.47;96314.03;4985469;28;20032;-62
2021/06/07 00:28:00;;;;;;;3.33;2.72;;;17.20;85.80;;;15.72;86.28;96306.09;4996302;28;20037;-61
2021/06/07 00:30:26;;;;;;;6.63;2.95;;;17.30;85.90;;;15.71;85.66;96308.94;5029217;28;20073;-61
2021/06/07 00:32:52;;;;;;;4.82;2.47;;;17.30;85.90;;;15.71;85.65;96304.47;4998892;28;20025;-62
2021/06/07 00:35:22;;;;;;;4.10;2.58;;;17.30;85.90;;;15.70;85.92;96315.28;5007818;28;20050;-62
2021/06/07 00:37:48;;;;;;;3.60;2.85;;;17.20;85.80;;;15.69;85.95;96306.50;4986117;28;20036;-62
2021/06/07 00:40:15;;;;;;;3.17;2.75;;;17.20;86.10;;;15.68;85.44;96312.84;4992912;28;20049;-63
2021/06/07 00:42:40;;;;;;;3.83;2.72;;;17.20;86.10;;;15.69;86.01;96313.66;5013129;28;20436;-62
2021/06/07 00:45:13;;;;;;;2.50;2.30;;;17.30;86.00;;;15.67;86.39;96308.56;4995058;28;20132;-62
2021/06/07 00:47:39;;;;;;;3.88;2.78;;;17.20;85.70;;;15.66;86.46;96317.56;4989245;28;20030;-63
2021/06/07 00:50:12;;;;;;;2.67;2.10;;;17.20;85.60;;;15.67;85.67;96313.06;5020121;28;20060;-62
2021/06/07 00:52:59;;;;;;;2.65;2.22;;;17.20;85.60;;;15.66;86.41;96314.09;5018051;28;20060;-62
2021/06/07 00:55:27;;;;;;;3.05;2.42;;;17.20;85.70;;;15.65;85.69;96317.78;5027675;28;20048;-63
2021/06/07 00:57:54;;;;;;;3.47;2.78;;;17.30;85.50;;;15.64;86.16;96310.84;4976733;28;20033;-62
2021/06/07 01:00:24;;;;;;;16.02;10.18;;;17.30;85.60;;;15.66;86.91;96314.91;4983289;28;20186;-62
2021/06/07 01:02:51;;;;;;;39.28;24.50;;;17.30;85.60;;;15.65;86.23;96318.59;4996660;28;20512;-62
2021/06/07 01:05:16;;;;;;;39.85;25.25;;;17.30;85.60;;;15.66;86.60;96314.09;4986629;28;20045;-63
2021/06/07 01:07:42;;;;;;;38.63;24.00;;;17.30;85.60;;;15.66;86.18;96304.28;5003210;28;20037;-62
2021/06/07 01:10:09;;;;;;;34.78;21.95;;;17.30;85.70;;;15.67;86.30;96305.09;4986781;28;20037;-63
2021/06/07 01:12:34;;;;;;;17.38;12.25;;;17.30;85.60;;;15.65;86.65;96313.28;4994307;28;20037;-63
2021/06/07 01:15:00;;;;;;;11.77;6.93;;;17.20;85.30;;;15.63;85.42;96307.38;4993299;28;20084;-62
2021/06/07 01:17:27;;;;;;;9.63;6.40;;;17.10;85.40;;;15.64;86.12;96308.19;5003003;28;20033;-63
2021/06/07 01:19:54;;;;;;;11.18;7.50;;;17.20;85.60;;;15.61;85.90;96299.66;5019607;28;20355;-63
2021/06/07 01:22:20;;;;;;;11.00;6.70;;;17.20;85.70;;;15.62;86.63;96303.09;5020862;28;20120;-62
2021/06/07 01:24:46;;;;;;;7.10;5.00;;;17.20;85.60;;;15.59;86.50;96303.50;4978726;28;20040;-63
2021/06/07 01:27:11;;;;;;;5.72;4.20;;;17.20;85.30;;;15.59;85.52;96300.88;4996175;28;20059;-62
2021/06/07 01:29:37;;;;;;;4.68;3.15;;;17.20;85.30;;;15.59;85.84;96304.31;5000984;28;20445;-63
2021/06/07 01:32:04;;;;;;;3.17;2.70;;;17.20;85.30;;;15.57;86.69;96306.34;5014207;28;20037;-62
2021/06/07 01:34:29;;;;;;;3.03;2.38;;;17.20;85.30;;;15.55;85.26;96303.09;5008850;28;20560;-64
2021/06/07 01:36:55;;;;;;;3.25;2.30;;;17.10;85.40;;;15.55;85.29;96307.59;5011223;28;20042;-62
2021/06/07 01:39:26;;;;;;;2.92;2.30;;;17.10;85.30;;;15.54;86.17;96305.97;4979221;28;20116;-62
2021/06/07 01:41:52;;;;;;;3.15;2.00;;;17.20;85.20;;;15.51;85.92;96306.41;5018365;28;20034;-62
2021/06/07 01:44:18;;;;;;;3.10;2.08;;;17.10;85.10;;;15.51;86.27;96306.41;5017634;28;20087;-62
2021/06/07 01:46:44;;;;;;;2.30;1.70;;;17.10;85.00;;;15.47;86.02;96306.03;5010859;28;20053;-62
2021/06/07 01:49:10;;;;;;;2.80;1.67;;;17.10;84.90;;;15.48;86.04;96306.84;5012096;28;20116;-63
2021/06/07 01:51:36;;;;;;;2.13;1.65;;;17.10;84.80;;;15.48;85.61;96306.84;5018163;28;20493;-63
2021/06/07 01:54:02;;;;;;;1.63;1.42;;;17.10;85.00;;;15.46;85.70;96308.91;4996787;28;20104;-63
2021/06/07 01:56:27;;;;;;;2.15;1.65;;;17.10;84.80;;;15.44;86.21;96297.69;5028060;28;20033;-63
2021/06/07 01:58:53;;;;;;;3.47;1.73;;;17.10;84.80;;;15.44;85.86;96295.84;5025444;28;20163;-62
2021/06/07 02:01:20;;;;;;;3.03;1.67;;;17.10;84.80;;;15.44;85.25;96305.66;4986883;28;20080;-61
2021/06/07 02:03:46;;;;;;;2.33;1.73;;;17.10;84.80;;;15.44;86.10;96298.50;4980419;28;20029;-62
2021/06/07 02:06:13;;;;;;;4.88;1.70;;;17.10;84.80;;;15.45;85.79;96291.38;5004662;28;20029;-63
2021/06/07 02:08:39;;;;;;;2.08;1.75;;;17.10;84.90;;;15.46;86.12;96298.28;5018206;28;20030;-62
2021/06/07 02:11:10;;;;;;;2.00;1.80;;;17.10;85.10;;;15.45;86.60;96301.97;5015749;28;20048;-62
2021/06/07 02:13:36;;;;;;;3.78;2.22;;;17.10;85.00;;;15.44;85.41;96301.16;5028868;28;20064;-63
2021/06/07 02:16:24;;;;;;;3.17;2.00;;;17.10;85.30;;;15.43;86.50;96299.53;5011992;28;20033;-62
2021/06/07 02:18:50;;;;;;;2.55;1.85;;;17.10;85.20;;;15.42;85.58;96295.25;5038391;28;20048;-62
2021/06/07 02:21:20;;;;;;;2.45;2.20;;;17.00;85.40;;;15.41;86.56;96295.47;4996066;28;20108;-63
2021/06/07 02:23:47;;;;;;;36.92;30.08;;;17.10;85.40;;;15.40;85.73;96294.66;4995155;28;20025;-63
2021/06/07 02:26:13;;;;;;;15.57;13.73;;;17.10;85.70;;;15.41;86.25;96295.47;5004347;23;20537;-70
2021/06/07 02:28:44;;;;;;;8.65;7.47;;;17.10;85.70;;;15.40;85.31;96288.56;4949915;28;20035;-69
2021/06/07 02:31:10;;;;;;;7.18;4.88;;;17.10;85.60;;;15.40;85.34;96291.19;4963844;28;20045;-71
2021/06/07 02:33:35;;;;;;;21.23;16.75;;;17.10;85.70;;;15.40;86.88;96299.16;4974036;28;20117;-71
2021/06/07 02:36:01;;;;;;;24.60;16.98;;;17.10;85.80;;;15.39;86.64;96298.34;4956679;28;20126;-70
2021/06/07 02:38:27;;;;;;;17.23;12.10;;;17.10;85.80;;;15.38;86.02;96301.19;4973041;28;20027;-72
2021/06/07 02:40:53;;;;;;;6.88;5.30;;;17.10;85.70;;;15.38;87.21;96303.84;4957693;28;20073;-71
2021/06/07 02:43:18;;;;;;;3.80;3.42;;;17.00;85.80;;;15.35;86.10;96296.31;4957753;28;20022;-70
2021/06/07 02:45:44;;;;;;;6.32;5.32;;;17.00;85.70;;;15.33;86.62;96300.00;4986730;28;20375;-71
2021/06/07 02:48:10;;;;;;;16.05;13.23;;;17.00;85.70;;;15.35;86.38;96306.91;4975379;28;20032;-71
2021/06/07 02:50:40;;;;;;;23.48;20.95;;;17.00;85.70;;;15.34;86.01;96292.84;4985186;28;20072;-71
2021/06/07 02:53:06;;;;;;;25.58;22.23;;;17.00;85.80;;;15.35;86.38;96302.41;4976762;28;20080;-71
2021/06/07 02:55:37;;;;;;;31.48;28.20;;;17.10;85.80;;;15.35;87.33;96299.78;4968707;28;20030;-69
2021/06/07 02:58:04;;;;;;;28.25;25.17;;;17.10;85.80;;;15.38;86.32;96306.47;4973114;28;20130;-71
2021/06/07 03:00:40;;;;;;;16.50;14.80;;;17.10;85.90;;;15.39;87.53;96302.81;4972751;28;20034;-71
2021/06/07 03:03:07;;;;;;;6.10;5.50;;;17.10;85.80;;;15.38;86.95;96302.00;4976670;28;20050;-71
2021/06/07 03:05:33;;;;;;;4.68;3.33;;;17.10;85.80;;;15.38;87.23;96306.47;4960617;28;20035;-68
2021/06/07 03:07:58;;;;;;;3.67;2.50;;;17.10;85.90;;;15.40;86.61;96304.47;4972132;28;20064;-70
2021/06/07 03:10:24;;;;;;;5.85;2.50;;;17.10;85.90;;;15.39;87.04;96302.81;4964711;28;20402;-71
2021/06/07 03:12:50;;;;;;;2.95;2.40;;;17.00;85.90;;;15.40;86.72;96315.06;4981600;28;20532;-69
2021/06/07 03:15:17;;;;;;;4.38;2.50;;;17.00;85.90;;;15.37;87.22;96305.66;4960101;28;20034;-69
2021/06/07 03:17:43;;;;;;;3.20;2.55;;;17.00;86.10;;;15.39;86.71;96308.09;4975679;28;20091;-71
2021/06/07 03:20:11;;;;;;;5.07;2.35;;;17.00;86.00;;;15.38;86.48;96301.19;4985294;28;20030;-70
2021/06/07 03:22:37;;;;;;;3.05;2.40;;;17.00;85.90;;;15.36;87.09;96303.22;4975588;28;20030;-69
2021/06/07 03:25:04;;;;;;;3.42;2.30;;;17.00;85.90;;;15.39;86.99;96305.44;4975772;28;20436;-71
2021/06/07 03:27:30;;;;;;;3.05;2.58;;;17.00;86.00;;;15.38;87.43;96296.69;4971222;28;20134;-71
2021/06/07 03:29:55;;;;;;;4.53;2.97;;;17.10;86.00;;;15.40;86.33;96299.16;4958962;28;20117;-70
2021/06/07 03:32:21;;;;;;;3.63;2.33;;;17.10;86.00;;;15.41;87.05;96301.59;4998386;28;20034;-70
2021/06/07 03:34:47;;;;;;;3.25;2.13;;;17.10;85.90;;;15.43;86.86;96306.69;4961185;28;20394;-70
2021/06/07 03:37:13;;;;;;;3.85;2.92;;;17.10;85.90;;;15.41;86.55;96300.78;4995391;28;20092;-71
2021/06/07 03:39:38;;;;;;;4.05;3.17;;;17.10;85.70;;;15.43;86.81;96301.38;4970955;28;20486;-71
2021/06/07 03:42:05;;;;;;;3.30;2.97;;;17.10;85.50;;;15.43;86.39;96299.53;4949480;28;20117;-72
2021/06/07 03:44:31;;;;;;;4.53;2.80;;;17.10;85.60;;;15.44;86.08;96298.50;4960784;28;20109;-71
2021/06/07 03:46:57;;;;;;;5.25;2.75;;;17.10;85.60;;;15.46;86.63;96303.59;4972807;28;20070;-70
2021/06/07 03:49:22;;;;;;;4.00;2.63;;;17.10;85.60;;;15.46;86.94;96304.41;4989485;28;20031;-68
2021/06/07 03:51:48;;;;;;;4.10;2.33;;;17.10;85.60;;;15.46;86.94;96309.72;4952537;28;20058;-72
2021/06/07 03:54:14;;;;;;;2.33;2.10;;;17.10;85.60;;;15.47;86.60;96313.97;4970938;28;20114;-76
2021/06/07 03:56:39;;;;;;;4.03;2.10;;;17.10;85.50;;;15.50;86.63;96315.38;4988649;28;20057;-69
2021/06/07 03:59:05;;;;;;;1.95;1.63;;;17.10;85.40;;;15.50;86.66;96315.38;4972636;28;20121;-67
2021/06/07 04:01:31;;;;;;;3.28;1.70;;;17.10;85.20;;;15.50;86.85;96310.91;4989284;28;20567;-66
2021/06/07 04:03:57;;;;;;;2.83;1.75;;;17.20;85.10;;;15.53;86.23;96314.94;4978791;28;20062;-74
2021/06/07 04:06:23;;;;;;;2.47;1.52;;;17.20;84.80;;;15.53;86.79;96314.94;4974614;28;20133;-75
2021/06/07 04:08:55;;;;;;;2.08;1.52;;;17.20;85.00;;;15.54;86.13;96317.38;4958910;28;20032;-67
2021/06/07 04:11:21;;;;;;;1.85;1.60;;;17.20;85.00;;;15.58;86.29;96323.91;4984519;28;20735;-75
2021/06/07 04:13:46;;;;;;;3.13;1.95;;;17.30;84.80;;;15.59;86.51;96314.94;5001801;28;20053;-70
2021/06/07 04:16:12;;;;;;;2.40;1.92;;;17.30;84.80;;;15.60;86.31;96321.03;4970865;28;20065;-69
2021/06/07 04:18:38;;;;;;;4.28;1.80;;;17.30;84.80;;;15.60;86.10;96315.75;4971369;28;20218;-69
2021/06/07 04:21:04;;;;;;;3.63;1.90;;;17.30;84.80;;;15.63;86.63;96320.63;4965318;28;20045;-69
2021/06/07 04:23:29;;;;;;;2.35;1.85;;;17.40;84.70;;;15.65;86.12;96323.06;4973497;28;20035;-69
2021/06/07 04:25:55;;;;;;;2.63;1.90;;;17.40;84.70;;;15.68;86.13;96323.47;4973794;28;20046;-70
2021/06/07 04:28:21;;;;;;;2.10;1.83;;;17.40;84.70;;;15.69;86.43;96327.72;4971452;28;20668;-68
2021/06/07 04:30:47;;;;;;;2.20;1.67;;;17.40;84.50;;;15.71;86.47;96330.97;4952033;28;20057;-71
2021/06/07 04:33:12;;;;;;;2.33;1.98;;;17.50;84.40;;;15.72;86.07;96323.84;4987668;28;20026;-71
2021/06/07 04:35:38;;;;;;;2.03;1.83;;;17.50;84.00;;;15.74;85.50;96329.72;4975176;28;20137;-68
2021/06/07 04:38:04;;;;;;;3.63;2.47;;;17.50;84.00;;;15.74;86.16;96321.78;4993581;28;20026;-70
2021/06/07 04:40:33;;;;;;;5.15;2.55;;;17.60;84.10;;;15.77;86.69;96319.50;4965156;28;20488;-70
2021/06/07 04:43:00;;;;;;;2.85;2.20;;;17.60;84.40;;;15.81;86.51;96323.34;4988617;28;20035;-70
2021/06/07 04:45:26;;;;;;;2.78;2.00;;;17.60;84.30;;;15.83;85.55;96326.59;4959146;28;20494;-71
2021/06/07 04:47:52;;;;;;;3.20;2.60;;;17.60;84.00;;;15.86;86.03;96325.38;4959197;28;20046;-70
2021/06/07 04:50:20;;;;;;;2.78;2.30;;;17.60;83.60;;;15.88;85.38;96323.31;4959116;28;20104;-70
2021/06/07 04:52:59;;;;;;;2.28;2.03;;;17.70;83.30;;;15.92;86.09;96324.50;4977435;28;20521;-71
2021/06/07 04:55:40;;;;;;;2.35;2.15;;;17.70;83.20;;;15.98;86.52;96320.16;4978812;28;20046;-70
2021/06/07 04:58:16;;;;;;;2.70;2.33;;;17.80;83.30;;;16.02;85.28;96324.81;5002086;28;20034;-72
2021/06/07 05:00:45;;;;;;;3.10;2.10;;;17.80;83.20;;;16.05;85.31;96331.50;4981017;28;20034;-69
2021/06/07 05:03:10;;;;;;;2.25;2.05;;;17.90;83.60;;;16.07;85.29;96321.50;4983894;28;20484;-70
2021/06/07 05:05:36;;;;;;;3.65;2.53;;;18.00;83.60;;;16.10;85.52;96326.38;4982829;28;20062;-68
2021/06/07 05:08:03;;;;;;;3.00;2.20;;;17.90;83.50;;;16.12;85.86;96329.63;4986883;28;20125;-69
2021/06/07 05:10:28;;;;;;;5.75;2.70;;;18.00;83.10;;;16.17;85.41;96332.44;4982442;28;20033;-69
2021/06/07 05:12:54;;;;;;;5.00;2.65;;;18.00;83.10;;;16.20;85.61;96332.00;4960711;28;20046;-69
2021/06/07 05:15:20;;;;;;;3.22;2.53;;;18.10;83.00;;;16.23;85.51;96324.41;4957617;28;20038;-70
2021/06/07 05:17:46;;;;;;;4.75;2.90;;;18.10;82.80;;;16.27;85.65;96335.41;4976756;28;20505;-74
2021/06/07 05:20:19;;;;;;;3.53;2.88;;;18.10;83.00;;;16.32;84.90;96326.81;4957884;28;20242;-69
2021/06/07 05:22:44;;;;;;;3.60;3.05;;;18.10;82.80;;;16.37;85.30;96333.06;4992517;28;20026;-67
2021/06/07 05:25:11;;;;;;;4.82;2.63;;;18.20;82.40;;;16.42;84.48;96329.75;4993942;28;20030;-68
2021/06/07 05:27:36;;;;;;;5.80;2.83;;;18.30;82.20;;;16.47;84.69;96322.75;4989720;28;20042;-64
2021/06/07 05:30:04;;;;;;;4.15;2.75;;;18.30;82.00;;;16.52;84.91;96330.88;4977621;28;20048;-71
2021/06/07 05:32:30;;;;;;;3.60;3.05;;;18.40;82.00;;;16.58;84.62;96328.38;4964556;28;20045;-69
2021/06/07 05:34:56;;;;;;;4.30;2.70;;;18.50;81.70;;;16.65;84.57;96329.09;4964363;28;20035;-71
2021/06/07 05:37:21;;;;;;;3.00;2.55;;;18.60;81.40;;;16.72;84.45;96335.97;4981034;28;20473;-72
2021/06/07 05:39:51;;;;;;;4.13;3.00;;;18.70;81.40;;;16.79;84.11;96331.44;4980022;28;20027;-70
2021/06/07 05:42:17;;;;;;;9.57;8.57;;;18.70;81.10;;;16.86;84.36;96333.19;4986723;28;20026;-69
2021/06/07 05:44:43;;;;;;;4.43;3.90;;;18.80;81.10;;;16.93;83.57;96332.06;4991547;28;20061;-72
2021/06/07 05:47:08;;;;;;;4.25;3.13;;;18.90;80.70;;;17.00;83.96;96340.78;4983607;28;20038;-71
2021/06/07 05:49:38;;;;;;;3.55;2.72;;;18.90;80.50;;;17.05;83.24;96340.94;4976747;28;20038;-73
2021/06/07 05:52:09;;;;;;;5.28;3.08;;;19.00;79.80;;;17.13;83.44;96337.94;4990005;28;20458;-72
2021/06/07 05:54:35;;;;;;;3.28;2.97;;;19.10;80.00;;;17.22;83.20;96335.00;4976776;28;20034;-79
2021/06/07 05:57:02;;;;;;;3.78;3.00;;;19.20;79.50;;;17.31;82.86;96344.28;4991285;28;20038;-72
2021/06/07 05:59:28;;;;;;;3.50;2.80;;;19.20;79.10;;;17.37;83.02;96343.38;4965803;28;20116;-67
2021/06/07 06:01:55;;;;;;;4.55;3.40;;;19.30;79.10;;;17.42;82.22;96351.47;4985931;28;20042;-72
2021/06/07 06:04:22;;;;;;;4.07;2.90;;;19.10;78.60;;;17.42;82.14;96351.47;4973399;28;20455;-71
2021/06/07 06:06:48;;;;;;;3.95;3.00;;;19.20;78.80;;;17.47;81.48;96343.66;4940308;28;20034;-70
2021/06/07 06:09:14;;;;;;;4.57;3.13;;;19.40;78.80;;;17.52;82.18;96345.63;4969212;28;20058;-71
2021/06/07 06:11:41;;;;;;;3.50;3.20;;;19.40;78.80;;;17.56;81.55;96342.28;4983632;28;20074;-70
2021/06/07 06:14:07;;;;;;;3.33;3.00;;;19.50;78.70;;;17.61;81.45;96344.25;4958017;28;20030;-69
2021/06/07 06:16:33;;;;;;;3.92;3.00;;;19.60;78.60;;;17.66;81.90;96342.56;4991294;28;20038;-69
2021/06/07 06:18:59;;;;;;;4.55;3.30;;;19.60;77.80;;;17.67;81.36;96348.69;4978981;28;20041;-71
2021/06/07 06:21:28;;;;;;;8.40;6.97;;;19.60;76.90;;;17.75;81.59;96346.53;4972813;28;20058;-70
2021/06/07 06:23:55;;;;;;;2.88;2.50;;;19.60;77.40;;;17.83;80.79;96341.91;4971892;28;20125;-71
2021/06/07 06:26:21;;;;;;;3.75;2.92;;;19.70;76.80;;;17.85;80.83;96345.97;4972125;28;20109;-70
2021/06/07 06:28:47;;;;;;;3.95;2.70;;;19.80;76.90;;;17.90;80.82;96353.28;4970985;28;20026;-69
2021/06/07 06:31:13;;;;;;;3.40;2.90;;;19.80;76.50;;;17.92;80.16;96356.53;4986855;28;20068;-70
2021/06/07 06:33:39;;;;;;;3.75;2.20;;;19.90;76.40;;;17.94;80.65;96351.78;4975721;28;20394;-69
2021/06/07 06:36:05;;;;;;;3.10;2.80;;;20.00;76.40;;;17.96;80.12;96352.38;4986010;28;20112;-69
2021/06/07 06:38:31;;;;;;;3.22;2.60;;;20.00;76.40;;;17.97;79.84;96352.13;4975011;28;20057;-70
2021/06/07 06:40:56;;;;;;;3.33;2.58;;;19.90;75.90;;;17.97;80.22;96359.31;4995631;28;20042;-68
2021/06/07 06:43:22;;;;;;;3.50;2.90;;;19.90;76.00;;;17.98;79.68;96366.25;4986124;28;20027;-70
2021/06/07 06:45:48;;;;;;;3.97;2.88;;;19.90;76.40;;;17.99;79.39;96359.88;4984977;28;20073;-68
2021/06/07 06:48:14;;;;;;;3.33;2.83;;;19.90;76.70;;;17.98;79.54;96361.75;4989193;28;20033;-72
2021/06/07 06:50:40;;;;;;;3.97;3.00;;;19.90;76.30;;;18.01;79.71;96363.13;4941986;28;20110;-70
2021/06/07 06:53:13;;;;;;;3.88;2.72;;;19.90;76.40;;;18.02;79.31;96356.75;4975840;28;20409;-71
2021/06/07 06:55:39;;;;;;;4.13;2.80;;;19.90;76.80;;;18.01;80.28;96358.63;4982798;28;20090;-73
2021/06/07 06:58:07;;;;;;;2.67;2.47;;;20.00;75.80;;;18.07;79.07;96364.88;4995386;28;20042;-73
2021/06/07 07:00:36;;;;;;;3.40;2.38;;;20.10;75.90;;;18.13;78.99;96369.31;4969917;28;20026;-69
2021/06/07 07:03:11;;;;;;;2.95;2.25;;;20.20;74.80;;;18.18;77.47;96372.06;4995883;28;20037;-69
2021/06/07 07:05:37;;;;;;;3.20;2.30;;;20.30;74.70;;;18.24;78.98;96370.34;4961342;28;20100;-67
2021/06/07 07:08:04;;;;;;;3.78;2.08;;;20.40;73.90;;;18.33;78.70;96367.13;4975319;28;20494;-72
2021/06/07 07:10:30;;;;;;;3.35;1.92;;;20.60;73.30;;;18.47;78.29;96356.22;4966363;28;20031;-69
2021/06/07 07:12:55;;;;;;;3.08;2.15;;;20.80;73.30;;;18.61;78.35;96358.41;4991906;28;20049;-70
2021/06/07 07:15:21;;;;;;;3.80;2.10;;;21.00;72.60;;;18.77;78.21;96362.25;4969677;28;20161;-68
2021/06/07 07:17:47;;;;;;;2.15;1.95;;;21.10;72.40;;;18.86;77.51;96363.53;4987675;28;20082;-72
2021/06/07 07:20:13;;;;;;;2.65;2.22;;;21.10;70.30;;;18.98;76.97;96353.63;4975207;28;20034;-71
2021/06/07 07:22:39;;;;;;;2.55;2.13;;;21.30;69.50;;;19.14;76.89;96357.41;4956344;28;20081;-68
2021/06/07 07:25:06;;;;;;;3.10;2.22;;;21.70;68.70;;;19.31;76.27;96360.16;4988878;28;20086;-68
2021/06/07 07:27:34;;;;;;;4.10;1.73;;;21.80;68.90;;;19.45;76.04;96356.16;4973998;28;20076;-66
2021/06/07 07:30:00;;;;;;;6.13;3.45;;;22.00;68.00;;;19.65;75.73;96355.75;4977254;28;20038;-69
2021/06/07 07:32:28;;;;;;;4.72;2.65;;;22.30;68.00;;;19.83;74.83;96352.06;4973737;28;20485;-69
2021/06/07 07:34:54;;;;;;;3.65;2.05;;;22.50;67.00;;;19.99;75.19;96356.63;4956322;28;20047;-68
2021/06/07 07:37:19;;;;;;;3.72;2.10;;;22.60;66.20;;;20.13;74.53;96355.22;4959357;28;20098;-67
2021/06/07 07:39:45;;;;;;;3.17;2.17;;;22.80;66.50;;;20.32;74.55;96358.47;4974405;28;20057;-73
2021/06/07 07:42:11;;;;;;;5.63;4.93;;;23.20;65.30;;;20.53;73.04;96362.28;4995904;28;20133;-68
2021/06/07 07:44:37;;;;;;;6.32;4.40;;;23.30;64.20;;;20.64;72.81;96369.41;5006154;28;20065;-68
2021/06/07 07:47:05;;;;;;;2.63;2.10;;;23.30;64.20;;;20.72;72.88;96360.94;4982736;28;20045;-70
2021/06/07 07:49:31;;;;;;;10.15;7.47;;;23.30;63.10;;;20.85;72.34;96367.03;4996285;28;20398;-69
2021/06/07 07:51:57;;;;;;;4.25;2.28;;;23.50;62.50;;;20.94;71.81;96362.84;4990968;28;20036;-71
2021/06/07 07:54:23;;;;;;;11.05;7.03;;;23.60;62.20;;;21.11;71.34;96360.94;5004294;28;20057;-70
2021/06/07 07:56:49;;;;;;;6.53;4.80;;;24.10;62.40;;;21.33;70.79;96372.47;4994127;28;20034;-71
2021/06/07 07:59:14;;;;;;;3.55;2.13;;;24.20;60.20;;;21.51;70.26;96367.84;4963922;28;20031;-70
2021/06/07 08:01:41;;;;;;;4.68;4.18;;;24.50;59.40;;;21.67;69.89;96361.56;4942008;28;20453;-70
2021/06/07 08:04:07;;;;;;;2.17;1.80;;;24.70;57.60;;;21.87;69.11;96366.31;4963904;28;20031;-69
2021/06/07 08:06:33;;;;;;;3.65;3.05;;;24.90;56.60;;;22.02;68.24;96364.59;4987607;28;20412;-69
2021/06/07 08:08:59;;;;;;;2.33;1.80;;;25.00;55.40;;;22.13;67.55;96359.34;4972020;28;20509;-71
2021/06/07 08:11:24;;;;;;;1.70;1.58;;;25.00;55.80;;;22.18;67.59;96356.69;4994365;28;20077;-68
2021/06/07 08:13:50;;;;;;;2.08;1.40;;;25.10;55.10;;;22.38;67.17;96362.22;4951487;28;20121;-71
2021/06/07 08:16:16;;;;;;;1.90;1.55;;;25.50;55.60;;;22.55;66.61;96368.25;4974332;28;20030;-70
2021/06/07 08:18:42;;;;;;;2.05;1.10;;;25.50;54.90;;;22.65;66.23;96358.66;4987455;28;20486;-71
2021/06/07 08:21:07;;;;;;;1.92;1.42;;;25.60;53.20;;;22.69;65.16;96351.72;4947166;28;20130;-74
2021/06/07 08:23:33;;;;;;;1.70;1.30;;;25.40;53.80;;;22.72;65.20;96356.56;4990524;28;20026;-71
2021/06/07 08:25:59;;;;;;;1.80;1.17;;;25.30;54.00;;;22.73;64.55;96364.34;4957070;28;20097;-70
2021/06/07 08:28:25;;;;;;;2.05;1.33;;;25.30;53.80;;;22.75;64.57;96361.41;4992133;28;20061;-71
2021/06/07 08:30:50;;;;;;;1.20;1.10;;;25.40;53.90;;;22.83;63.66;96348.31;4975849;28;20478;-70
2021/06/07 08:33:16;;;;;;;1.67;1.20;;;25.50;53.70;;;22.82;63.74;96357.44;4974887;28;20057;-70
2021/06/07 08:35:42;;;;;;;1.30;1.00;;;25.20;55.00;;;22.79;63.70;96362.50;4945382;28;20061;-71
2021/06/07 08:38:08;;;;;;;2.05;1.20;;;25.10;54.50;;;22.71;63.71;96366.47;4988516;28;20145;-71
2021/06/07 08:40:34;;;;;;;1.73;1.15;;;24.90;54.50;;;22.55;63.54;96362.88;4959085;28;20114;-68
2021/06/07 08:43:00;;;;;;;1.58;1.10;;;24.70;55.10;;;22.47;63.46;96363.38;4956833;28;20434;-70
2021/06/07 08:45:25;;;;;;;1.80;1.30;;;24.60;56.90;;;22.41;63.62;96367.09;4956246;28;20057;-71
2021/06/07 08:47:52;;;;;;;1.38;1.27;;;24.60;57.00;;;22.34;63.58;96369.16;4967490;28;20483;-71
2021/06/07 08:50:21;;;;;;;2.50;1.30;;;24.50;56.60;;;22.26;62.27;96361.63;4960654;28;20095;-71
2021/06/07 08:52:47;;;;;;;1.27;1.00;;;24.50;55.80;;;22.30;63.17;96360.84;4972497;28;20490;-67
2021/06/07 08:55:15;;;;;;;1.52;1.17;;;24.50;55.60;;;22.35;62.79;96368.09;4957371;28;20061;-71
2021/06/07 08:57:50;;;;;;;25.10;22.25;;;24.60;55.70;;;22.37;61.88;96365.97;4972936;28;20115;-73
2021/06/07 09:00:20;;;;;;;7.70;6.00;;;24.60;56.70;;;22.36;62.36;96367.03;4979631;28;20042;-69
2021/06/07 09:02:47;;;;;;;7.30;2.10;;;24.50;57.80;;;22.29;63.86;96369.13;4973592;28;20026;-69
2021/06/07 09:05:13;;;;;;;2.65;1.55;;;24.40;58.80;;;22.25;63.96;96368.03;5001310;28;20572;-68
2021/06/07 09:07:53;;;;;;;5.05;2.60;;;24.20;59.50;;;22.26;62.74;96375.00;4989065;28;20165;-72
2021/06/07 09:10:19;;;;;;;2.83;1.77;;;24.50;58.50;;;22.34;63.93;96371.03;5017808;28;20045;-77
2021/06/07 09:12:45;;;;;;;2.72;1.42;;;24.70;57.40;;;22.48;64.14;96370.34;4993477;28;20030;-69
2021/06/07 09:15:25;;;;;;;3.85;1.75;;;25.00;58.60;;;22.68;63.30;96372.38;4981090;28;20041;-70
2021/06/07 09:17:50;;;;;;;1.95;1.35;;;25.30;57.60;;;22.81;63.72;96366.56;4972959;28;20053;-71
2021/06/07 09:20:19;;;;;;;6.10;1.63;;;25.40;56.40;;;22.89;63.47;96368.78;4971337;28;20117;-71
2021/06/07 09:22:58;;;;;;;2.33;1.30;;;25.40;56.20;;;23.02;61.84;96370.16;4973528;28;20022;-70
2021/06/07 09:25:29;;;;;;;4.03;1.40;;;25.50;56.70;;;23.09;62.26;96357.34;4957087;28;20073;-70
2021/06/07 09:28:18;;;;;;;3.75;1.45;;;25.60;56.40;;;23.23;59.97;96369.19;4972638;28;20454;-70
2021/06/07 09:30:52;;;;;;;1.55;1.10;;;25.90;53.50;;;23.36;60.09;96367.09;4973634;28;20032;-69
2021/06/07 09:33:29;;;;;;;2.80;1.30;;;26.00;52.80;;;23.49;58.92;96369.25;4976196;28;20057;-70
2021/06/07 09:36:27;;;;;;;2.05;1.35;;;26.10;51.70;;;23.61;58.68;96363.72;5006131;28;20556;-72
2021/06/07 09:39:03;;;;;;;3.13;1.17;;;26.00;52.20;;;23.60;58.53;96367.47;4981789;28;20069;-71
2021/06/07 09:42:02;;;;;;;1.25;1.00;;;26.10;51.60;;;23.62;57.75;96360.75;4987248;28;20118;-70
2021/06/07 09:44:33;;;;;;;274.30;27.87;;;26.10;51.70;;;23.69;59.03;96361.28;4959473;28;20081;-71
2021/06/07 09:47:22;;;;;;;28.98;6.10;;;26.40;51.40;;;23.87;57.49;96368.06;4973137;28;20043;-71
2021/06/07 09:50:05;;;;;;;2.73;1.30;;;26.70;50.20;;;24.07;56.45;96359.22;4987642;28;20050;-68
2021/06/07 09:52:53;;;;;;;2.92;1.42;;;26.70;49.40;;;24.21;55.55;96352.22;4981802;28;20057;-67
2021/06/07 09:55:26;;;;;;;1.92;1.08;;;26.90;48.30;;;24.29;56.36;96359.78;4983484;28;20038;-67
2021/06/07 09:58:04;;;;;;;2.03;0.90;;;27.00;49.10;;;24.38;56.20;96363.53;4968029;28;20046;-69
2021/06/07 10:00:56;;;;;;;1.75;1.08;;;27.00;50.00;;;24.39;55.04;96362.44;4974620;28;20045;-67
2021/06/07 10:03:27;;;;;;;2.03;1.10;;;26.90;48.80;;;24.39;55.58;96350.88;4976426;28;20069;-68
2021/06/07 10:06:00;;;;;;;3.00;1.15;;;27.00;48.40;;;24.50;57.21;96359.78;4970467;28;20077;-70
2021/06/07 10:08:43;;;;;;;2.40;1.50;;;27.20;49.30;;;24.61;55.83;96355.97;4982648;28;20034;-67
2021/06/07 10:11:23;;;;;;;2.72;1.25;;;27.40;48.50;;;24.66;54.98;96361.34;4972423;28;20035;-67
2021/06/07 10:13:49;;;;;;;;;;;27.40;47.70;;;24.71;54.22;96361.34;4969832;28;20129;-69
2021/06/07 10:16:15;;;;;;;3.50;1.20;;;27.40;47.50;;;24.74;57.27;96355.41;4972708;28;19921;-70
2021/06/07 10:18:41;;;;;;;1.75;1.00;;;27.40;47.00;;;24.85;56.61;96351.63;4952951;28;20073;-67
2021/06/07 10:21:09;;;;;;;1.15;0.90;;;27.50;47.20;;;24.96;55.96;96347.03;4978426;28;20101;-69